sensor_id;sensor_type;location;lat;lon;timestamp;temperature;humidity
6738;DHT22;3406;49.902;8.596;2024-01-11T00:01:20;-3.50;61.40
6738;DHT22;3406;49.902;8.596;2024-01-11T00:03:47;-3.50;61.60
6738;DHT22;3406;49.902;8.596;2024-01-11T00:06:13;-3.50;61.70
6738;DHT22;3406;49.902;8.596;2024-01-11T00:08:40;-3.50;61.90
6738;DHT22;3406;49.902;8.596;2024-01-11T00:11:07;-3.50;61.90
6738;DHT22;3406;49.902;8.596;2024-01-11T00:13:34;-3.50;62.00
6738;DHT22;3406;49.902;8.596;2024-01-11T00:16:02;-3.40;62.10
6738;DHT22;3406;49.902;8.596;2024-01-11T00:18:29;-3.40;62.20
6738;DHT22;3406;49.902;8.596;2024-01-11T00:20:55;-3.40;62.20
6738;DHT22;3406;49.902;8.596;2024-01-11T00:23:22;-3.40;62.30
6738;DHT22;3406;49.902;8.596;2024-01-11T00:25:48;-3.30;62.40
6738;DHT22;3406;49.902;8.596;2024-01-11T00:28:15;-3.30;62.40
6738;DHT22;3406;49.902;8.596;2024-01-11T00:30:42;-3.30;62.50
6738;DHT22;3406;49.902;8.596;2024-01-11T00:33:10;-3.30;62.50
6738;DHT22;3406;49.902;8.596;2024-01-11T00:35:37;-3.20;62.70
6738;DHT22;3406;49.902;8.596;2024-01-11T00:38:03;-3.20;62.70
6738;DHT22;3406;49.902;8.596;2024-01-11T00:40:30;-3.20;62.70
6738;DHT22;3406;49.902;8.596;2024-01-11T00:42:56;-3.20;62.80
6738;DHT22;3406;49.902;8.596;2024-01-11T00:45:23;-3.20;62.70
6738;DHT22;3406;49.902;8.596;2024-01-11T00:47:50;-3.20;62.80
6738;DHT22;3406;49.902;8.596;2024-01-11T00:50:18;-3.20;63.50
6738;DHT22;3406;49.902;8.596;2024-01-11T00:52:44;-3.30;62.60
6738;DHT22;3406;49.902;8.596;2024-01-11T00:55:11;-3.30;62.70
6738;DHT22;3406;49.902;8.596;2024-01-11T00:57:38;-3.30;62.80
6738;DHT22;3406;49.902;8.596;2024-01-11T01:00:06;-3.30;62.80
6738;DHT22;3406;49.902;8.596;2024-01-11T01:02:32;-3.30;63.00
6738;DHT22;3406;49.902;8.596;2024-01-11T01:04:59;-3.30;63.00
6738;DHT22;3406;49.902;8.596;2024-01-11T01:07:27;-3.30;63.00
6738;DHT22;3406;49.902;8.596;2024-01-11T01:09:54;-3.30;63.00
6738;DHT22;3406;49.902;8.596;2024-01-11T01:12:20;-3.30;63.10
6738;DHT22;3406;49.902;8.596;2024-01-11T01:14:47;-3.30;63.10
6738;DHT22;3406;49.902;8.596;2024-01-11T01:17:14;-3.30;63.20
6738;DHT22;3406;49.902;8.596;2024-01-11T01:19:40;-3.30;63.30
6738;DHT22;3406;49.902;8.596;2024-01-11T01:22:07;-3.30;63.30
6738;DHT22;3406;49.902;8.596;2024-01-11T01:24:35;-3.30;63.30
6738;DHT22;3406;49.902;8.596;2024-01-11T01:27:02;-3.30;63.30
6738;DHT22;3406;49.902;8.596;2024-01-11T01:29:28;-3.30;63.30
6738;DHT22;3406;49.902;8.596;2024-01-11T01:31:55;-3.30;63.40
6738;DHT22;3406;49.902;8.596;2024-01-11T01:34:21;-3.30;63.40
6738;DHT22;3406;49.902;8.596;2024-01-11T01:36:48;-3.40;63.40
6738;DHT22;3406;49.902;8.596;2024-01-11T01:39:15;-3.40;63.50
6738;DHT22;3406;49.902;8.596;2024-01-11T01:41:43;-3.40;63.60
6738;DHT22;3406;49.902;8.596;2024-01-11T01:44:10;-3.40;63.70
6738;DHT22;3406;49.902;8.596;2024-01-11T01:46:37;-3.40;63.80
6738;DHT22;3406;49.902;8.596;2024-01-11T01:49:04;-3.40;63.90
6738;DHT22;3406;49.902;8.596;2024-01-11T01:51:32;-3.40;64.00
6738;DHT22;3406;49.902;8.596;2024-01-11T01:54:00;-3.40;64.10
6738;DHT22;3406;49.902;8.596;2024-01-11T01:56:27;-3.40;64.10
6738;DHT22;3406;49.902;8.596;2024-01-11T01:58:56;-3.50;64.10
6738;DHT22;3406;49.902;8.596;2024-01-11T02:01:25;-3.50;64.20
6738;DHT22;3406;49.902;8.596;2024-01-11T02:03:54;-3.50;64.30
6738;DHT22;3406;49.902;8.596;2024-01-11T02:06:22;-3.50;64.50
6738;DHT22;3406;49.902;8.596;2024-01-11T02:08:51;-3.60;64.50
6738;DHT22;3406;49.902;8.596;2024-01-11T02:11:19;-3.60;64.60
6738;DHT22;3406;49.902;8.596;2024-01-11T02:13:46;-3.60;64.70
6738;DHT22;3406;49.902;8.596;2024-01-11T02:16:14;-3.60;64.70
6738;DHT22;3406;49.902;8.596;2024-01-11T02:18:41;-3.60;64.70
6738;DHT22;3406;49.902;8.596;2024-01-11T02:21:09;-3.60;64.70
6738;DHT22;3406;49.902;8.596;2024-01-11T02:23:42;-3.60;64.70
6738;DHT22;3406;49.902;8.596;2024-01-11T02:26:12;-3.60;64.80
6738;DHT22;3406;49.902;8.596;2024-01-11T02:28:43;-3.60;64.80
6738;DHT22;3406;49.902;8.596;2024-01-11T02:31:10;-3.60;64.80
6738;DHT22;3406;49.902;8.596;2024-01-11T02:33:37;-3.60;64.70
6738;DHT22;3406;49.902;8.596;2024-01-11T02:36:05;-3.60;64.70
6738;DHT22;3406;49.902;8.596;2024-01-11T02:38:32;-3.60;64.70
6738;DHT22;3406;49.902;8.596;2024-01-11T02:40:59;-3.60;64.70
6738;DHT22;3406;49.902;8.596;2024-01-11T02:43:27;-3.60;64.70
6738;DHT22;3406;49.902;8.596;2024-01-11T02:45:54;-3.70;64.60
6738;DHT22;3406;49.902;8.596;2024-01-11T02:48:21;-3.70;64.60
6738;DHT22;3406;49.902;8.596;2024-01-11T02:50:48;-3.70;64.60
6738;DHT22;3406;49.902;8.596;2024-01-11T02:53:15;-3.80;64.50
6738;DHT22;3406;49.902;8.596;2024-01-11T02:55:41;-3.80;64.50
6738;DHT22;3406;49.902;8.596;2024-01-11T02:58:08;-3.80;64.60
6738;DHT22;3406;49.902;8.596;2024-01-11T03:00:36;-3.90;65.20
6738;DHT22;3406;49.902;8.596;2024-01-11T03:03:03;-4.00;64.60
6738;DHT22;3406;49.902;8.596;2024-01-11T03:05:30;-4.00;64.80
6738;DHT22;3406;49.902;8.596;2024-01-11T03:07:57;-4.00;64.90
6738;DHT22;3406;49.902;8.596;2024-01-11T03:10:23;-4.10;65.00
6738;DHT22;3406;49.902;8.596;2024-01-11T03:12:50;-4.10;65.20
6738;DHT22;3406;49.902;8.596;2024-01-11T03:15:17;-4.10;65.30
6738;DHT22;3406;49.902;8.596;2024-01-11T03:24:29;-4.10;65.70
6738;DHT22;3406;49.902;8.596;2024-01-11T03:26:56;-4.00;66.00
6738;DHT22;3406;49.902;8.596;2024-01-11T03:29:22;-4.00;66.00
6738;DHT22;3406;49.902;8.596;2024-01-11T03:31:49;-4.00;66.00
6738;DHT22;3406;49.902;8.596;2024-01-11T03:34:15;-4.00;66.10
6738;DHT22;3406;49.902;8.596;2024-01-11T03:36:42;-4.00;66.10
6738;DHT22;3406;49.902;8.596;2024-01-11T03:39:09;-3.90;66.30
6738;DHT22;3406;49.902;8.596;2024-01-11T03:41:37;-4.00;66.10
6738;DHT22;3406;49.902;8.596;2024-01-11T03:44:03;-3.90;66.30
6738;DHT22;3406;49.902;8.596;2024-01-11T03:46:30;-4.00;66.20
6738;DHT22;3406;49.902;8.596;2024-01-11T03:48:57;-4.00;66.20
6738;DHT22;3406;49.902;8.596;2024-01-11T03:51:25;-4.00;66.30
6738;DHT22;3406;49.902;8.596;2024-01-11T03:53:51;-4.00;66.30
6738;DHT22;3406;49.902;8.596;2024-01-11T03:56:18;-4.00;66.30
6738;DHT22;3406;49.902;8.596;2024-01-11T03:58:46;-3.90;66.40
6738;DHT22;3406;49.902;8.596;2024-01-11T04:01:13;-4.00;66.30
6738;DHT22;3406;49.902;8.596;2024-01-11T04:03:41;-4.00;66.40
6738;DHT22;3406;49.902;8.596;2024-01-11T04:06:08;-4.10;66.40
6738;DHT22;3406;49.902;8.596;2024-01-11T04:08:35;-4.10;66.50
6738;DHT22;3406;49.902;8.596;2024-01-11T04:11:02;-4.10;66.50
6738;DHT22;3406;49.902;8.596;2024-01-11T04:13:29;-4.10;66.60
6738;DHT22;3406;49.902;8.596;2024-01-11T04:15:58;-4.10;66.60
6738;DHT22;3406;49.902;8.596;2024-01-11T04:18:25;-4.10;66.60
6738;DHT22;3406;49.902;8.596;2024-01-11T04:20:52;-4.10;66.70
6738;DHT22;3406;49.902;8.596;2024-01-11T04:23:18;-4.10;66.80
6738;DHT22;3406;49.902;8.596;2024-01-11T04:25:45;-4.10;66.80
6738;DHT22;3406;49.902;8.596;2024-01-11T04:28:12;-4.10;66.70
6738;DHT22;3406;49.902;8.596;2024-01-11T04:30:38;-4.10;66.70
6738;DHT22;3406;49.902;8.596;2024-01-11T04:33:06;-4.20;66.60
6738;DHT22;3406;49.902;8.596;2024-01-11T04:35:33;-4.20;66.60
6738;DHT22;3406;49.902;8.596;2024-01-11T04:38:00;-4.20;66.70
6738;DHT22;3406;49.902;8.596;2024-01-11T04:40:26;-4.30;66.60
6738;DHT22;3406;49.902;8.596;2024-01-11T04:42:53;-4.30;67.30
6738;DHT22;3406;49.902;8.596;2024-01-11T04:45:20;-4.30;66.70
6738;DHT22;3406;49.902;8.596;2024-01-11T04:47:47;-4.30;66.80
6738;DHT22;3406;49.902;8.596;2024-01-11T04:50:17;-4.30;66.80
6738;DHT22;3406;49.902;8.596;2024-01-11T04:52:44;-4.40;66.70
6738;DHT22;3406;49.902;8.596;2024-01-11T04:55:11;-4.30;66.80
6738;DHT22;3406;49.902;8.596;2024-01-11T04:57:37;-4.40;66.70
6738;DHT22;3406;49.902;8.596;2024-01-11T05:00:05;-4.40;66.60
6738;DHT22;3406;49.902;8.596;2024-01-11T05:02:33;-4.40;66.70
6738;DHT22;3406;49.902;8.596;2024-01-11T05:04:59;-4.40;66.70
6738;DHT22;3406;49.902;8.596;2024-01-11T05:07:28;-4.40;66.70
6738;DHT22;3406;49.902;8.596;2024-01-11T05:09:55;-4.40;66.70
6738;DHT22;3406;49.902;8.596;2024-01-11T05:12:21;-4.40;66.70
6738;DHT22;3406;49.902;8.596;2024-01-11T05:14:48;-4.40;66.80
6738;DHT22;3406;49.902;8.596;2024-01-11T05:17:15;-4.40;66.80
6738;DHT22;3406;49.902;8.596;2024-01-11T05:19:41;-4.40;66.80
6738;DHT22;3406;49.902;8.596;2024-01-11T05:22:08;-4.50;66.60
6738;DHT22;3406;49.902;8.596;2024-01-11T05:24:35;-4.50;66.60
6738;DHT22;3406;49.902;8.596;2024-01-11T05:27:01;-4.50;66.60
6738;DHT22;3406;49.902;8.596;2024-01-11T05:29:28;-4.60;66.50
6738;DHT22;3406;49.902;8.596;2024-01-11T05:31:55;-4.60;66.60
6738;DHT22;3406;49.902;8.596;2024-01-11T05:34:21;-4.60;66.60
6738;DHT22;3406;49.902;8.596;2024-01-11T05:36:48;-4.60;66.70
6738;DHT22;3406;49.902;8.596;2024-01-11T05:39:14;-4.60;66.80
6738;DHT22;3406;49.902;8.596;2024-01-11T05:41:44;-4.60;66.90
6738;DHT22;3406;49.902;8.596;2024-01-11T05:44:11;-4.60;67.00
6738;DHT22;3406;49.902;8.596;2024-01-11T05:46:38;-4.60;67.00
6738;DHT22;3406;49.902;8.596;2024-01-11T05:49:04;-4.60;67.00
6738;DHT22;3406;49.902;8.596;2024-01-11T05:51:31;-4.60;67.00
6738;DHT22;3406;49.902;8.596;2024-01-11T05:53:57;-4.50;67.10
6738;DHT22;3406;49.902;8.596;2024-01-11T05:56:24;-4.50;67.00
6738;DHT22;3406;49.902;8.596;2024-01-11T05:58:52;-4.50;67.00
6738;DHT22;3406;49.902;8.596;2024-01-11T06:01:19;-4.50;67.00
6738;DHT22;3406;49.902;8.596;2024-01-11T06:03:46;-4.50;67.00
6738;DHT22;3406;49.902;8.596;2024-01-11T06:06:13;-4.50;67.00
6738;DHT22;3406;49.902;8.596;2024-01-11T06:08:40;-4.60;66.90
6738;DHT22;3406;49.902;8.596;2024-01-11T06:11:08;-4.60;66.80
6738;DHT22;3406;49.902;8.596;2024-01-11T06:13:34;-4.60;66.90
6738;DHT22;3406;49.902;8.596;2024-01-11T06:16:05;-4.60;66.80
6738;DHT22;3406;49.902;8.596;2024-01-11T06:18:33;-4.60;67.10
6738;DHT22;3406;49.902;8.596;2024-01-11T06:20:59;-4.60;67.10
6738;DHT22;3406;49.902;8.596;2024-01-11T06:23:26;-4.60;67.10
6738;DHT22;3406;49.902;8.596;2024-01-11T06:25:52;-4.70;67.10
6738;DHT22;3406;49.902;8.596;2024-01-11T06:28:19;-4.70;67.10
6738;DHT22;3406;49.902;8.596;2024-01-11T06:30:46;-4.70;67.20
6738;DHT22;3406;49.902;8.596;2024-01-11T06:33:14;-4.70;67.20
6738;DHT22;3406;49.902;8.596;2024-01-11T06:35:40;-4.60;67.30
6738;DHT22;3406;49.902;8.596;2024-01-11T06:38:07;-4.60;67.40
6738;DHT22;3406;49.902;8.596;2024-01-11T06:40:34;-4.60;67.40
6738;DHT22;3406;49.902;8.596;2024-01-11T06:43:00;-4.60;67.40
6738;DHT22;3406;49.902;8.596;2024-01-11T06:45:27;-4.60;67.40
6738;DHT22;3406;49.902;8.596;2024-01-11T06:47:53;-4.60;67.40
6738;DHT22;3406;49.902;8.596;2024-01-11T06:50:21;-4.60;67.40
6738;DHT22;3406;49.902;8.596;2024-01-11T06:52:48;-4.50;67.60
6738;DHT22;3406;49.902;8.596;2024-01-11T06:55:15;-4.50;67.60
6738;DHT22;3406;49.902;8.596;2024-01-11T06:57:41;-4.50;67.50
6738;DHT22;3406;49.902;8.596;2024-01-11T07:00:10;-4.50;67.60
6738;DHT22;3406;49.902;8.596;2024-01-11T07:02:38;-4.50;67.60
6738;DHT22;3406;49.902;8.596;2024-01-11T07:05:06;-4.50;67.60
6738;DHT22;3406;49.902;8.596;2024-01-11T07:07:34;-4.40;67.60
6738;DHT22;3406;49.902;8.596;2024-01-11T07:10:01;-4.40;67.60
6738;DHT22;3406;49.902;8.596;2024-01-11T07:12:31;-4.40;67.60
6738;DHT22;3406;49.902;8.596;2024-01-11T07:14:57;-4.40;67.60
6738;DHT22;3406;49.902;8.596;2024-01-11T07:17:24;-4.40;67.60
6738;DHT22;3406;49.902;8.596;2024-01-11T07:19:50;-4.40;67.60
6738;DHT22;3406;49.902;8.596;2024-01-11T07:22:18;-4.40;67.60
6738;DHT22;3406;49.902;8.596;2024-01-11T07:24:46;-4.40;67.60
6738;DHT22;3406;49.902;8.596;2024-01-11T07:27:13;-4.40;67.60
6738;DHT22;3406;49.902;8.596;2024-01-11T07:29:40;-4.40;67.60
6738;DHT22;3406;49.902;8.596;2024-01-11T07:32:06;-4.40;67.60
6738;DHT22;3406;49.902;8.596;2024-01-11T07:34:33;-4.30;67.70
6738;DHT22;3406;49.902;8.596;2024-01-11T07:37:00;-4.40;67.60
6738;DHT22;3406;49.902;8.596;2024-01-11T07:39:26;-4.30;67.70
6738;DHT22;3406;49.902;8.596;2024-01-11T07:41:54;-4.30;67.60
6738;DHT22;3406;49.902;8.596;2024-01-11T07:44:21;-4.30;67.70
6738;DHT22;3406;49.902;8.596;2024-01-11T07:46:48;-4.30;67.70
6738;DHT22;3406;49.902;8.596;2024-01-11T07:49:14;-4.20;67.80
6738;DHT22;3406;49.902;8.596;2024-01-11T07:51:41;-4.30;67.60
6738;DHT22;3406;49.902;8.596;2024-01-11T07:54:07;-4.20;67.70
6738;DHT22;3406;49.902;8.596;2024-01-11T07:56:34;-4.20;67.70
6738;DHT22;3406;49.902;8.596;2024-01-11T07:59:02;-4.20;67.70
6738;DHT22;3406;49.902;8.596;2024-01-11T08:01:30;-4.20;67.70
6738;DHT22;3406;49.902;8.596;2024-01-11T08:04:00;-4.10;68.00
6738;DHT22;3406;49.902;8.596;2024-01-11T08:06:28;-4.10;67.80
6738;DHT22;3406;49.902;8.596;2024-01-11T08:08:54;-4.00;67.70
6738;DHT22;3406;49.902;8.596;2024-01-11T08:11:21;-4.00;67.70
6738;DHT22;3406;49.902;8.596;2024-01-11T08:13:48;-4.00;67.60
6738;DHT22;3406;49.902;8.596;2024-01-11T08:16:18;-4.00;67.60
6738;DHT22;3406;49.902;8.596;2024-01-11T08:18:45;-4.00;67.70
6738;DHT22;3406;49.902;8.596;2024-01-11T08:21:13;-3.90;67.80
6738;DHT22;3406;49.902;8.596;2024-01-11T08:23:40;-3.90;67.70
6738;DHT22;3406;49.902;8.596;2024-01-11T08:26:11;-3.90;67.70
6738;DHT22;3406;49.902;8.596;2024-01-11T08:28:37;-3.80;67.70
6738;DHT22;3406;49.902;8.596;2024-01-11T08:31:04;-3.80;67.70
6738;DHT22;3406;49.902;8.596;2024-01-11T08:33:33;-3.70;68.00
6738;DHT22;3406;49.902;8.596;2024-01-11T08:35:59;-3.50;68.10
6738;DHT22;3406;49.902;8.596;2024-01-11T08:38:29;-3.40;68.00
6738;DHT22;3406;49.902;8.596;2024-01-11T08:40:55;-3.30;67.80
6738;DHT22;3406;49.902;8.596;2024-01-11T08:43:22;-3.30;67.60
6738;DHT22;3406;49.902;8.596;2024-01-11T08:45:49;-3.30;67.40
6738;DHT22;3406;49.902;8.596;2024-01-11T08:48:15;-3.30;67.40
6738;DHT22;3406;49.902;8.596;2024-01-11T08:50:44;-3.20;67.50
6738;DHT22;3406;49.902;8.596;2024-01-11T08:53:10;-3.30;67.30
6738;DHT22;3406;49.902;8.596;2024-01-11T08:55:41;-3.30;67.30
6738;DHT22;3406;49.902;8.596;2024-01-11T08:58:08;-3.30;67.30
6738;DHT22;3406;49.902;8.596;2024-01-11T09:00:34;-3.30;67.40
6738;DHT22;3406;49.902;8.596;2024-01-11T09:03:04;-3.30;67.40
6738;DHT22;3406;49.902;8.596;2024-01-11T09:05:30;-3.20;67.40
6738;DHT22;3406;49.902;8.596;2024-01-11T09:07:58;-3.20;67.40
6738;DHT22;3406;49.902;8.596;2024-01-11T09:10:25;-3.20;67.40
6738;DHT22;3406;49.902;8.596;2024-01-11T09:12:53;-3.20;67.30
6738;DHT22;3406;49.902;8.596;2024-01-11T09:15:20;-3.20;67.20
6738;DHT22;3406;49.902;8.596;2024-01-11T09:17:46;-3.20;67.40
6738;DHT22;3406;49.902;8.596;2024-01-11T09:20:13;-2.70;69.00
6738;DHT22;3406;49.902;8.596;2024-01-11T09:22:40;-2.10;68.80
6738;DHT22;3406;49.902;8.596;2024-01-11T09:25:08;-2.00;67.60
6738;DHT22;3406;49.902;8.596;2024-01-11T09:27:35;-2.00;66.90
6738;DHT22;3406;49.902;8.596;2024-01-11T09:30:03;-2.10;66.60
6738;DHT22;3406;49.902;8.596;2024-01-11T09:32:29;-2.30;66.30
6738;DHT22;3406;49.902;8.596;2024-01-11T09:34:56;-2.30;66.50
6738;DHT22;3406;49.902;8.596;2024-01-11T09:37:23;-2.40;66.70
6738;DHT22;3406;49.902;8.596;2024-01-11T09:39:50;-2.40;66.90
6738;DHT22;3406;49.902;8.596;2024-01-11T09:42:18;-2.50;66.80
6738;DHT22;3406;49.902;8.596;2024-01-11T09:44:46;-2.50;66.80
6738;DHT22;3406;49.902;8.596;2024-01-11T09:47:15;-2.40;66.90
6738;DHT22;3406;49.902;8.596;2024-01-11T09:49:42;-2.40;66.90
6738;DHT22;3406;49.902;8.596;2024-01-11T09:52:11;-2.40;66.90
6738;DHT22;3406;49.902;8.596;2024-01-11T09:54:38;-2.30;67.50
6738;DHT22;3406;49.902;8.596;2024-01-11T09:57:07;-2.30;66.70
6738;DHT22;3406;49.902;8.596;2024-01-11T09:59:37;-2.20;66.70
6738;DHT22;3406;49.902;8.596;2024-01-11T10:02:04;-2.20;66.70
6738;DHT22;3406;49.902;8.596;2024-01-11T10:04:33;-2.10;66.70
6738;DHT22;3406;49.902;8.596;2024-01-11T10:07:01;-2.10;66.60
6738;DHT22;3406;49.902;8.596;2024-01-11T10:09:29;-2.10;66.50
6738;DHT22;3406;49.902;8.596;2024-01-11T10:11:56;-2.00;66.50
6738;DHT22;3406;49.902;8.596;2024-01-11T10:14:23;-2.00;66.40
6738;DHT22;3406;49.902;8.596;2024-01-11T10:16:51;-2.00;66.40
6738;DHT22;3406;49.902;8.596;2024-01-11T10:19:20;-2.00;66.40
6738;DHT22;3406;49.902;8.596;2024-01-11T10:21:47;-2.00;66.30
6738;DHT22;3406;49.902;8.596;2024-01-11T10:24:18;-2.00;66.20
6738;DHT22;3406;49.902;8.596;2024-01-11T10:26:46;-2.00;66.10
6738;DHT22;3406;49.902;8.596;2024-01-11T10:29:12;-2.00;66.10
6738;DHT22;3406;49.902;8.596;2024-01-11T10:31:39;-1.90;66.30
6738;DHT22;3406;49.902;8.596;2024-01-11T10:34:08;-1.90;66.30
6738;DHT22;3406;49.902;8.596;2024-01-11T10:36:34;-1.80;66.90
6738;DHT22;3406;49.902;8.596;2024-01-11T10:39:03;-1.70;66.20
6738;DHT22;3406;49.902;8.596;2024-01-11T10:41:32;-1.70;66.10
6738;DHT22;3406;49.902;8.596;2024-01-11T10:44:03;-1.60;66.00
6738;DHT22;3406;49.902;8.596;2024-01-11T10:46:34;-1.60;65.90
6738;DHT22;3406;49.902;8.596;2024-01-11T10:49:03;-1.50;65.90
6738;DHT22;3406;49.902;8.596;2024-01-11T10:51:32;-1.50;65.80
6738;DHT22;3406;49.902;8.596;2024-01-11T10:54:01;-1.50;65.60
6738;DHT22;3406;49.902;8.596;2024-01-11T10:56:29;-1.40;65.70
6738;DHT22;3406;49.902;8.596;2024-01-11T10:58:57;-1.30;65.60
6738;DHT22;3406;49.902;8.596;2024-01-11T11:01:24;-1.30;65.50
6738;DHT22;3406;49.902;8.596;2024-01-11T11:03:52;-1.20;65.60
6738;DHT22;3406;49.902;8.596;2024-01-11T11:06:21;-1.20;65.50
6738;DHT22;3406;49.902;8.596;2024-01-11T11:08:50;-1.10;65.40
6738;DHT22;3406;49.902;8.596;2024-01-11T11:11:19;-1.10;65.90
6738;DHT22;3406;49.902;8.596;2024-01-11T11:13:47;-1.00;65.20
6738;DHT22;3406;49.902;8.596;2024-01-11T11:16:15;-1.00;65.00
6738;DHT22;3406;49.902;8.596;2024-01-11T11:18:41;-0.90;65.10
6738;DHT22;3406;49.902;8.596;2024-01-11T11:21:09;-0.90;64.90
6738;DHT22;3406;49.902;8.596;2024-01-11T11:23:37;-0.80;64.90
6738;DHT22;3406;49.902;8.596;2024-01-11T11:26:06;-0.80;64.70
6738;DHT22;3406;49.902;8.596;2024-01-11T11:28:33;-0.70;64.70
6738;DHT22;3406;49.902;8.596;2024-01-11T11:31:02;-0.70;64.60
6738;DHT22;3406;49.902;8.596;2024-01-11T11:33:29;-0.70;64.60
6738;DHT22;3406;49.902;8.596;2024-01-11T11:35:58;-0.60;64.60
6738;DHT22;3406;49.902;8.596;2024-01-11T11:38:26;-0.50;64.60
6738;DHT22;3406;49.902;8.596;2024-01-11T11:40:55;-0.50;64.40
6738;DHT22;3406;49.902;8.596;2024-01-11T11:43:26;-0.40;64.40
6738;DHT22;3406;49.902;8.596;2024-01-11T11:45:53;-0.30;64.30
6738;DHT22;3406;49.902;8.596;2024-01-11T11:48:47;-0.30;64.20
6738;DHT22;3406;49.902;8.596;2024-01-11T11:51:15;-0.30;64.10
6738;DHT22;3406;49.902;8.596;2024-01-11T11:53:42;-0.20;64.10
6738;DHT22;3406;49.902;8.596;2024-01-11T11:56:10;-0.10;64.00
6738;DHT22;3406;49.902;8.596;2024-01-11T11:58:39;0.10;64.50
6738;DHT22;3406;49.902;8.596;2024-01-11T12:01:06;0.40;64.40
6738;DHT22;3406;49.902;8.596;2024-01-11T12:03:34;0.60;63.80
6738;DHT22;3406;49.902;8.596;2024-01-11T12:06:03;0.70;63.30
6738;DHT22;3406;49.902;8.596;2024-01-11T12:08:31;0.70;62.90
6738;DHT22;3406;49.902;8.596;2024-01-11T12:10:58;0.70;62.70
6738;DHT22;3406;49.902;8.596;2024-01-11T12:13:25;0.60;62.50
6738;DHT22;3406;49.902;8.596;2024-01-11T12:15:53;0.60;62.30
6738;DHT22;3406;49.902;8.596;2024-01-11T12:18:20;0.60;62.40
6738;DHT22;3406;49.902;8.596;2024-01-11T12:20:47;0.60;62.30
6738;DHT22;3406;49.902;8.596;2024-01-11T12:23:14;0.60;62.20
6738;DHT22;3406;49.902;8.596;2024-01-11T12:25:42;0.60;62.00
6738;DHT22;3406;49.902;8.596;2024-01-11T12:28:08;0.70;62.00
6738;DHT22;3406;49.902;8.596;2024-01-11T12:30:35;0.70;62.00
6738;DHT22;3406;49.902;8.596;2024-01-11T12:33:04;0.80;61.90
6738;DHT22;3406;49.902;8.596;2024-01-11T12:35:32;0.80;61.70
6738;DHT22;3406;49.902;8.596;2024-01-11T12:37:59;0.80;61.50
6738;DHT22;3406;49.902;8.596;2024-01-11T12:40:27;0.90;61.40
6738;DHT22;3406;49.902;8.596;2024-01-11T12:42:54;0.90;61.20
6738;DHT22;3406;49.902;8.596;2024-01-11T12:45:20;1.00;61.10
6738;DHT22;3406;49.902;8.596;2024-01-11T12:47:47;1.00;61.00
6738;DHT22;3406;49.902;8.596;2024-01-11T12:50:16;1.10;61.00
6738;DHT22;3406;49.902;8.596;2024-01-11T12:52:43;1.10;60.80
6738;DHT22;3406;49.902;8.596;2024-01-11T12:55:18;1.20;60.70
6738;DHT22;3406;49.902;8.596;2024-01-11T12:57:45;1.20;60.50
6738;DHT22;3406;49.902;8.596;2024-01-11T13:00:13;1.30;60.40
6738;DHT22;3406;49.902;8.596;2024-01-11T13:02:41;1.40;60.30
6738;DHT22;3406;49.902;8.596;2024-01-11T13:05:09;1.40;60.10
6738;DHT22;3406;49.902;8.596;2024-01-11T13:07:38;1.40;60.00
6738;DHT22;3406;49.902;8.596;2024-01-11T13:10:05;1.50;59.90
6738;DHT22;3406;49.902;8.596;2024-01-11T13:12:32;1.50;59.80
6738;DHT22;3406;49.902;8.596;2024-01-11T13:14:58;1.50;59.70
6738;DHT22;3406;49.902;8.596;2024-01-11T13:17:25;1.50;59.60
6738;DHT22;3406;49.902;8.596;2024-01-11T13:19:53;1.60;59.50
6738;DHT22;3406;49.902;8.596;2024-01-11T13:22:19;1.60;59.40
6738;DHT22;3406;49.902;8.596;2024-01-11T13:24:47;1.70;59.40
6738;DHT22;3406;49.902;8.596;2024-01-11T13:27:14;1.70;59.30
6738;DHT22;3406;49.902;8.596;2024-01-11T13:29:41;1.70;59.20
6738;DHT22;3406;49.902;8.596;2024-01-11T13:32:08;1.80;59.20
6738;DHT22;3406;49.902;8.596;2024-01-11T13:34:36;1.80;59.10
6738;DHT22;3406;49.902;8.596;2024-01-11T13:37:03;1.80;59.00
6738;DHT22;3406;49.902;8.596;2024-01-11T13:39:29;1.90;58.90
6738;DHT22;3406;49.902;8.596;2024-01-11T13:41:57;1.90;58.80
6738;DHT22;3406;49.902;8.596;2024-01-11T13:44:24;2.00;58.80
6738;DHT22;3406;49.902;8.596;2024-01-11T13:46:51;2.00;58.70
6738;DHT22;3406;49.902;8.596;2024-01-11T13:49:17;2.00;58.50
6738;DHT22;3406;49.902;8.596;2024-01-11T13:51:44;2.00;58.40
6738;DHT22;3406;49.902;8.596;2024-01-11T13:54:13;2.10;58.50
6738;DHT22;3406;49.902;8.596;2024-01-11T13:56:39;2.20;58.40
6738;DHT22;3406;49.902;8.596;2024-01-11T13:59:07;2.30;58.30
6738;DHT22;3406;49.902;8.596;2024-01-11T14:01:34;2.30;58.10
6738;DHT22;3406;49.902;8.596;2024-01-11T14:04:01;2.30;58.00
6738;DHT22;3406;49.902;8.596;2024-01-11T14:06:28;2.30;58.00
6738;DHT22;3406;49.902;8.596;2024-01-11T14:08:55;2.30;58.00
6738;DHT22;3406;49.902;8.596;2024-01-11T14:11:22;2.30;57.90
6738;DHT22;3406;49.902;8.596;2024-01-11T14:13:48;2.30;57.90
6738;DHT22;3406;49.902;8.596;2024-01-11T14:16:16;2.30;57.80
6738;DHT22;3406;49.902;8.596;2024-01-11T14:18:43;2.40;57.90
6738;DHT22;3406;49.902;8.596;2024-01-11T14:21:10;2.40;57.80
6738;DHT22;3406;49.902;8.596;2024-01-11T14:23:37;2.40;57.70
6738;DHT22;3406;49.902;8.596;2024-01-11T14:26:03;2.40;57.60
6738;DHT22;3406;49.902;8.596;2024-01-11T14:28:30;2.40;57.50
6738;DHT22;3406;49.902;8.596;2024-01-11T14:30:57;2.40;57.50
6738;DHT22;3406;49.902;8.596;2024-01-11T14:33:25;2.50;57.50
6738;DHT22;3406;49.902;8.596;2024-01-11T14:35:51;2.50;57.50
6738;DHT22;3406;49.902;8.596;2024-01-11T14:38:18;2.50;58.00
6738;DHT22;3406;49.902;8.596;2024-01-11T14:40:45;2.50;57.40
6738;DHT22;3406;49.902;8.596;2024-01-11T14:43:12;2.50;57.40
6738;DHT22;3406;49.902;8.596;2024-01-11T14:45:38;2.50;57.40
6738;DHT22;3406;49.902;8.596;2024-01-11T14:48:06;2.50;57.40
6738;DHT22;3406;49.902;8.596;2024-01-11T14:50:34;2.50;57.40
6738;DHT22;3406;49.902;8.596;2024-01-11T14:53:00;2.50;57.40
6738;DHT22;3406;49.902;8.596;2024-01-11T14:55:28;2.40;57.30
6738;DHT22;3406;49.902;8.596;2024-01-11T14:57:55;2.40;57.40
6738;DHT22;3406;49.902;8.596;2024-01-11T15:00:22;2.40;57.50
6738;DHT22;3406;49.902;8.596;2024-01-11T15:02:49;2.30;57.50
6738;DHT22;3406;49.902;8.596;2024-01-11T15:05:17;2.30;57.50
6738;DHT22;3406;49.902;8.596;2024-01-11T15:07:45;2.20;57.50
6738;DHT22;3406;49.902;8.596;2024-01-11T15:10:11;2.20;57.50
6738;DHT22;3406;49.902;8.596;2024-01-11T15:12:38;2.20;57.60
6738;DHT22;3406;49.902;8.596;2024-01-11T15:15:06;2.10;57.60
6738;DHT22;3406;49.902;8.596;2024-01-11T15:17:33;2.10;57.70
6738;DHT22;3406;49.902;8.596;2024-01-11T15:20:00;2.10;57.70
6738;DHT22;3406;49.902;8.596;2024-01-11T15:22:28;2.00;57.70
6738;DHT22;3406;49.902;8.596;2024-01-11T15:24:56;2.00;57.70
6738;DHT22;3406;49.902;8.596;2024-01-11T15:27:22;1.90;57.70
6738;DHT22;3406;49.902;8.596;2024-01-11T15:29:49;1.80;58.20
6738;DHT22;3406;49.902;8.596;2024-01-11T15:32:16;1.80;57.70
6738;DHT22;3406;49.902;8.596;2024-01-11T15:34:43;1.80;57.80
6738;DHT22;3406;49.902;8.596;2024-01-11T15:37:10;1.70;57.80
6738;DHT22;3406;49.902;8.596;2024-01-11T15:39:36;1.60;57.70
6738;DHT22;3406;49.902;8.596;2024-01-11T15:42:05;1.60;57.80
6738;DHT22;3406;49.902;8.596;2024-01-11T15:44:32;1.60;58.40
6738;DHT22;3406;49.902;8.596;2024-01-11T15:46:59;1.50;57.80
6738;DHT22;3406;49.902;8.596;2024-01-11T15:49:26;1.40;57.80
6738;DHT22;3406;49.902;8.596;2024-01-11T15:51:53;1.40;57.90
6738;DHT22;3406;49.902;8.596;2024-01-11T15:54:21;1.40;57.90
6738;DHT22;3406;49.902;8.596;2024-01-11T15:56:48;1.30;57.90
6738;DHT22;3406;49.902;8.596;2024-01-11T15:59:17;1.30;58.00
6738;DHT22;3406;49.902;8.596;2024-01-11T16:01:44;1.30;58.00
6738;DHT22;3406;49.902;8.596;2024-01-11T16:04:10;1.30;58.00
6738;DHT22;3406;49.902;8.596;2024-01-11T16:06:37;1.20;58.00
6738;DHT22;3406;49.902;8.596;2024-01-11T16:09:04;1.20;58.00
6738;DHT22;3406;49.902;8.596;2024-01-11T16:11:31;1.20;58.00
6738;DHT22;3406;49.902;8.596;2024-01-11T16:13:58;1.10;58.00